sensor_id;sensor_type;location;lat;lon;timestamp;temperature;humidity
38090;DHT22;23904;52.322;10.232;2023-03-01T00:01:30;0.10;99.90
38090;DHT22;23904;52.322;10.232;2023-03-01T00:03:58;0.10;99.90
38090;DHT22;23904;52.322;10.232;2023-03-01T00:06:25;0.20;99.90
38090;DHT22;23904;52.322;10.232;2023-03-01T00:08:52;0.20;99.90
38090;DHT22;23904;52.322;10.232;2023-03-01T00:11:26;0.10;99.90
38090;DHT22;23904;52.322;10.232;2023-03-01T00:13:55;0.10;99.90
38090;DHT22;23904;52.322;10.232;2023-03-01T00:16:26;0.00;99.90
38090;DHT22;23904;52.322;10.232;2023-03-01T00:18:55;0.00;99.90
38090;DHT22;23904;52.322;10.232;2023-03-01T00:21:22;-0.10;99.90
38090;DHT22;23904;52.322;10.232;2023-03-01T00:23:49;-0.20;99.90
38090;DHT22;23904;52.322;10.232;2023-03-01T00:26:16;-0.20;99.90
38090;DHT22;23904;52.322;10.232;2023-03-01T00:28:43;-0.30;99.90
38090;DHT22;23904;52.322;10.232;2023-03-01T00:31:12;-0.20;99.90
38090;DHT22;23904;52.322;10.232;2023-03-01T00:33:43;-0.20;99.90
38090;DHT22;23904;52.322;10.232;2023-03-01T00:36:11;-0.20;99.90
38090;DHT22;23904;52.322;10.232;2023-03-01T00:38:40;-0.20;99.90
38090;DHT22;23904;52.322;10.232;2023-03-01T00:41:10;-0.30;99.90
38090;DHT22;23904;52.322;10.232;2023-03-01T00:43:37;-0.40;99.90
38090;DHT22;23904;52.322;10.232;2023-03-01T00:46:04;-0.40;99.90
38090;DHT22;23904;52.322;10.232;2023-03-01T00:48:33;-0.40;99.90
38090;DHT22;23904;52.322;10.232;2023-03-01T00:51:10;-0.30;99.90
38090;DHT22;23904;52.322;10.232;2023-03-01T00:53:40;-0.20;99.90
38090;DHT22;23904;52.322;10.232;2023-03-01T00:56:07;-0.20;99.90
38090;DHT22;23904;52.322;10.232;2023-03-01T00:58:34;-0.20;99.90
38090;DHT22;23904;52.322;10.232;2023-03-01T01:01:01;-0.20;99.90
38090;DHT22;23904;52.322;10.232;2023-03-01T01:03:31;-0.20;99.90
38090;DHT22;23904;52.322;10.232;2023-03-01T01:05:57;-0.20;99.90
38090;DHT22;23904;52.322;10.232;2023-03-01T01:08:23;-0.30;99.90
38090;DHT22;23904;52.322;10.232;2023-03-01T01:10:48;-0.30;99.90
38090;DHT22;23904;52.322;10.232;2023-03-01T01:13:14;-0.30;99.90
38090;DHT22;23904;52.322;10.232;2023-03-01T01:15:40;-0.30;99.90
38090;DHT22;23904;52.322;10.232;2023-03-01T01:18:06;-0.40;99.90
38090;DHT22;23904;52.322;10.232;2023-03-01T01:20:32;-0.50;99.90
38090;DHT22;23904;52.322;10.232;2023-03-01T01:22:58;-0.50;99.90
38090;DHT22;23904;52.322;10.232;2023-03-01T01:25:24;-0.50;99.90
38090;DHT22;23904;52.322;10.232;2023-03-01T01:27:52;-0.60;99.90
38090;DHT22;23904;52.322;10.232;2023-03-01T01:30:17;-0.60;99.90
38090;DHT22;23904;52.322;10.232;2023-03-01T01:32:43;-0.50;99.90
38090;DHT22;23904;52.322;10.232;2023-03-01T01:35:08;-0.50;99.90
38090;DHT22;23904;52.322;10.232;2023-03-01T01:37:34;-0.50;99.90
38090;DHT22;23904;52.322;10.232;2023-03-01T01:40:01;-0.50;99.90
38090;DHT22;23904;52.322;10.232;2023-03-01T01:42:29;-0.50;99.90
38090;DHT22;23904;52.322;10.232;2023-03-01T01:45:34;-0.60;99.90
38090;DHT22;23904;52.322;10.232;2023-03-01T01:48:05;-0.70;99.90
38090;DHT22;23904;52.322;10.232;2023-03-01T01:50:33;-0.70;99.90
38090;DHT22;23904;52.322;10.232;2023-03-01T01:53:05;-0.70;99.90
38090;DHT22;23904;52.322;10.232;2023-03-01T01:55:36;-0.70;99.90
38090;DHT22;23904;52.322;10.232;2023-03-01T01:58:08;-0.60;99.90
38090;DHT22;23904;52.322;10.232;2023-03-01T02:00:37;-0.80;99.90
38090;DHT22;23904;52.322;10.232;2023-03-01T02:03:11;-0.80;99.90
38090;DHT22;23904;52.322;10.232;2023-03-01T02:06:03;-0.70;99.90
38090;DHT22;23904;52.322;10.232;2023-03-01T02:08:32;-0.70;99.90
38090;DHT22;23904;52.322;10.232;2023-03-01T02:11:01;-0.70;99.90
38090;DHT22;23904;52.322;10.232;2023-03-01T02:13:30;-0.70;99.90
38090;DHT22;23904;52.322;10.232;2023-03-01T02:15:56;-0.80;99.90
38090;DHT22;23904;52.322;10.232;2023-03-01T02:18:23;-0.80;99.90
38090;DHT22;23904;52.322;10.232;2023-03-01T02:21:13;-0.80;99.90
38090;DHT22;23904;52.322;10.232;2023-03-01T02:23:42;-0.70;99.90
38090;DHT22;23904;52.322;10.232;2023-03-01T02:26:23;-0.70;99.90
38090;DHT22;23904;52.322;10.232;2023-03-01T02:28:54;-0.80;99.90
38090;DHT22;23904;52.322;10.232;2023-03-01T02:31:20;-0.90;99.90
38090;DHT22;23904;52.322;10.232;2023-03-01T02:34:06;-0.80;99.90
38090;DHT22;23904;52.322;10.232;2023-03-01T02:36:44;-1.00;99.90
38090;DHT22;23904;52.322;10.232;2023-03-01T02:39:15;-1.10;99.90
38090;DHT22;23904;52.322;10.232;2023-03-01T02:41:46;-1.20;99.90
38090;DHT22;23904;52.322;10.232;2023-03-01T02:44:14;-1.20;99.90
38090;DHT22;23904;52.322;10.232;2023-03-01T02:46:48;-1.20;99.90
38090;DHT22;23904;52.322;10.232;2023-03-01T02:49:20;-1.10;99.90
38090;DHT22;23904;52.322;10.232;2023-03-01T02:52:37;-1.10;99.90
38090;DHT22;23904;52.322;10.232;2023-03-01T02:55:13;-1.20;99.90
38090;DHT22;23904;52.322;10.232;2023-03-01T02:57:44;-1.40;99.90
38090;DHT22;23904;52.322;10.232;2023-03-01T03:00:17;-1.40;99.90
38090;DHT22;23904;52.322;10.232;2023-03-01T03:02:45;-1.40;99.90
38090;DHT22;23904;52.322;10.232;2023-03-01T03:05:18;-1.40;99.90
38090;DHT22;23904;52.322;10.232;2023-03-01T03:07:47;-1.40;99.90
38090;DHT22;23904;52.322;10.232;2023-03-01T03:10:26;-1.40;99.90
38090;DHT22;23904;52.322;10.232;2023-03-01T03:12:56;-1.40;99.90
38090;DHT22;23904;52.322;10.232;2023-03-01T03:15:24;-1.40;99.90
38090;DHT22;23904;52.322;10.232;2023-03-01T03:17:52;-1.40;99.90
38090;DHT22;23904;52.322;10.232;2023-03-01T03:20:21;-1.30;99.90
38090;DHT22;23904;52.322;10.232;2023-03-01T03:22:50;-1.30;99.90
38090;DHT22;23904;52.322;10.232;2023-03-01T03:25:17;-1.20;99.90
38090;DHT22;23904;52.322;10.232;2023-03-01T03:27:45;-1.20;99.90
38090;DHT22;23904;52.322;10.232;2023-03-01T03:30:15;-1.20;99.90
38090;DHT22;23904;52.322;10.232;2023-03-01T03:32:44;-1.20;99.90
38090;DHT22;23904;52.322;10.232;2023-03-01T03:35:18;-1.20;99.90
38090;DHT22;23904;52.322;10.232;2023-03-01T03:37:44;-1.20;99.90
38090;DHT22;23904;52.322;10.232;2023-03-01T03:40:29;-1.20;99.90
38090;DHT22;23904;52.322;10.232;2023-03-01T03:43:06;-1.20;99.90
38090;DHT22;23904;52.322;10.232;2023-03-01T03:45:35;-1.20;99.90
38090;DHT22;23904;52.322;10.232;2023-03-01T03:48:02;-1.30;99.90
38090;DHT22;23904;52.322;10.232;2023-03-01T03:50:29;-1.40;99.90
38090;DHT22;23904;52.322;10.232;2023-03-01T03:52:55;-1.40;99.90
38090;DHT22;23904;52.322;10.232;2023-03-01T03:55:30;-1.40;99.90
38090;DHT22;23904;52.322;10.232;2023-03-01T03:58:00;-1.50;99.90
38090;DHT22;23904;52.322;10.232;2023-03-01T04:00:28;-1.50;99.90
38090;DHT22;23904;52.322;10.232;2023-03-01T04:02:53;-1.60;99.90
38090;DHT22;23904;52.322;10.232;2023-03-01T04:05:22;-1.60;99.90
38090;DHT22;23904;52.322;10.232;2023-03-01T04:07:48;-1.60;99.90
38090;DHT22;23904;52.322;10.232;2023-03-01T04:10:16;-1.60;99.90
38090;DHT22;23904;52.322;10.232;2023-03-01T04:12:43;-1.50;99.90
38090;DHT22;23904;52.322;10.232;2023-03-01T04:18:50;-1.50;99.90
38090;DHT22;23904;52.322;10.232;2023-03-01T04:21:18;-1.50;99.90
38090;DHT22;23904;52.322;10.232;2023-03-01T04:23:45;-1.40;99.90
38090;DHT22;23904;52.322;10.232;2023-03-01T04:26:11;-1.50;99.90
38090;DHT22;23904;52.322;10.232;2023-03-01T04:28:39;-1.50;99.90
38090;DHT22;23904;52.322;10.232;2023-03-01T04:31:10;-1.60;99.90
38090;DHT22;23904;52.322;10.232;2023-03-01T04:33:48;-1.60;99.90
38090;DHT22;23904;52.322;10.232;2023-03-01T04:36:20;-1.60;99.90
38090;DHT22;23904;52.322;10.232;2023-03-01T04:38:48;-1.60;99.90
38090;DHT22;23904;52.322;10.232;2023-03-01T04:41:15;-1.60;99.90
38090;DHT22;23904;52.322;10.232;2023-03-01T04:43:42;-1.50;99.90
38090;DHT22;23904;52.322;10.232;2023-03-01T04:46:14;-1.50;99.90
38090;DHT22;23904;52.322;10.232;2023-03-01T04:48:42;-1.50;99.90
38090;DHT22;23904;52.322;10.232;2023-03-01T04:51:09;-1.50;99.90
38090;DHT22;23904;52.322;10.232;2023-03-01T04:53:38;-1.50;99.90
38090;DHT22;23904;52.322;10.232;2023-03-01T04:56:04;-1.60;99.90
38090;DHT22;23904;52.322;10.232;2023-03-01T04:58:34;-1.60;99.90
38090;DHT22;23904;52.322;10.232;2023-03-01T05:01:00;-1.60;99.90
38090;DHT22;23904;52.322;10.232;2023-03-01T05:03:25;-1.70;99.90
38090;DHT22;23904;52.322;10.232;2023-03-01T05:05:52;-1.70;99.90
38090;DHT22;23904;52.322;10.232;2023-03-01T05:08:18;-1.70;99.90
38090;DHT22;23904;52.322;10.232;2023-03-01T05:10:51;-1.70;99.90
38090;DHT22;23904;52.322;10.232;2023-03-01T05:13:22;-1.60;99.90
38090;DHT22;23904;52.322;10.232;2023-03-01T05:15:54;-1.60;99.90
38090;DHT22;23904;52.322;10.232;2023-03-01T05:18:20;-1.60;99.90
38090;DHT22;23904;52.322;10.232;2023-03-01T05:20:46;-1.60;99.90
38090;DHT22;23904;52.322;10.232;2023-03-01T05:23:13;-1.60;99.90
38090;DHT22;23904;52.322;10.232;2023-03-01T05:25:38;-1.60;99.90
38090;DHT22;23904;52.322;10.232;2023-03-01T05:28:06;-1.70;99.90
38090;DHT22;23904;52.322;10.232;2023-03-01T05:30:37;-1.70;99.90
38090;DHT22;23904;52.322;10.232;2023-03-01T05:33:04;-1.80;99.90
38090;DHT22;23904;52.322;10.232;2023-03-01T05:35:32;-1.80;99.90
38090;DHT22;23904;52.322;10.232;2023-03-01T05:37:58;-1.80;99.90
38090;DHT22;23904;52.322;10.232;2023-03-01T05:40:24;-1.80;99.90
38090;DHT22;23904;52.322;10.232;2023-03-01T05:42:53;-1.90;99.90
38090;DHT22;23904;52.322;10.232;2023-03-01T05:45:19;-1.80;99.90
38090;DHT22;23904;52.322;10.232;2023-03-01T05:47:46;-1.90;99.90
38090;DHT22;23904;52.322;10.232;2023-03-01T05:50:25;-1.90;99.90
38090;DHT22;23904;52.322;10.232;2023-03-01T05:53:03;-1.80;99.90
38090;DHT22;23904;52.322;10.232;2023-03-01T05:55:31;-1.80;99.90
38090;DHT22;23904;52.322;10.232;2023-03-01T05:58:05;-1.80;99.90
38090;DHT22;23904;52.322;10.232;2023-03-01T06:00:33;-1.90;99.90
38090;DHT22;23904;52.322;10.232;2023-03-01T06:02:59;-1.90;99.90
38090;DHT22;23904;52.322;10.232;2023-03-01T06:05:25;-1.90;99.90
38090;DHT22;23904;52.322;10.232;2023-03-01T06:07:51;-1.90;99.90
38090;DHT22;23904;52.322;10.232;2023-03-01T06:10:19;-1.80;99.90
38090;DHT22;23904;52.322;10.232;2023-03-01T06:12:46;-1.80;99.90
38090;DHT22;23904;52.322;10.232;2023-03-01T06:15:13;-1.80;99.90
38090;DHT22;23904;52.322;10.232;2023-03-01T06:17:42;-1.80;99.90
38090;DHT22;23904;52.322;10.232;2023-03-01T06:20:29;-1.80;99.90
38090;DHT22;23904;52.322;10.232;2023-03-01T06:22:54;-1.80;99.90
38090;DHT22;23904;52.322;10.232;2023-03-01T06:25:22;-1.80;99.90
38090;DHT22;23904;52.322;10.232;2023-03-01T06:27:50;-1.80;99.90
38090;DHT22;23904;52.322;10.232;2023-03-01T06:30:19;-1.80;99.90
38090;DHT22;23904;52.322;10.232;2023-03-01T06:32:45;-1.80;99.90
38090;DHT22;23904;52.322;10.232;2023-03-01T06:35:13;-1.80;99.90
38090;DHT22;23904;52.322;10.232;2023-03-01T06:37:40;-1.70;99.90
38090;DHT22;23904;52.322;10.232;2023-03-01T06:40:07;-1.80;99.90
38090;DHT22;23904;52.322;10.232;2023-03-01T06:42:41;-1.70;99.90
38090;DHT22;23904;52.322;10.232;2023-03-01T06:45:09;-1.70;99.90
38090;DHT22;23904;52.322;10.232;2023-03-01T06:47:35;-1.70;99.90
38090;DHT22;23904;52.322;10.232;2023-03-01T06:50:02;-1.60;99.90
38090;DHT22;23904;52.322;10.232;2023-03-01T06:52:28;-1.60;99.90
38090;DHT22;23904;52.322;10.232;2023-03-01T06:54:54;-1.60;99.90
38090;DHT22;23904;52.322;10.232;2023-03-01T06:57:20;-1.50;99.90
38090;DHT22;23904;52.322;10.232;2023-03-01T06:59:47;-1.50;99.90
38090;DHT22;23904;52.322;10.232;2023-03-01T07:02:13;-1.50;99.90
38090;DHT22;23904;52.322;10.232;2023-03-01T07:04:40;-1.50;99.90
38090;DHT22;23904;52.322;10.232;2023-03-01T07:07:06;-1.40;99.90
38090;DHT22;23904;52.322;10.232;2023-03-01T07:09:32;-1.40;99.90
38090;DHT22;23904;52.322;10.232;2023-03-01T07:11:58;-1.40;99.90
38090;DHT22;23904;52.322;10.232;2023-03-01T07:14:24;-1.30;99.90
38090;DHT22;23904;52.322;10.232;2023-03-01T07:16:51;-1.20;99.90
38090;DHT22;23904;52.322;10.232;2023-03-01T07:19:18;-1.10;99.90
38090;DHT22;23904;52.322;10.232;2023-03-01T07:21:44;-1.00;99.90
38090;DHT22;23904;52.322;10.232;2023-03-01T07:24:10;-0.90;99.90
38090;DHT22;23904;52.322;10.232;2023-03-01T07:26:36;-0.90;99.90
38090;DHT22;23904;52.322;10.232;2023-03-01T07:29:03;-0.80;99.90
38090;DHT22;23904;52.322;10.232;2023-03-01T07:31:30;-0.70;99.90
38090;DHT22;23904;52.322;10.232;2023-03-01T07:33:56;-0.50;99.90
38090;DHT22;23904;52.322;10.232;2023-03-01T07:36:22;-0.30;99.90
38090;DHT22;23904;52.322;10.232;2023-03-01T07:38:47;-0.20;99.90
38090;DHT22;23904;52.322;10.232;2023-03-01T07:41:13;0.00;99.90
38090;DHT22;23904;52.322;10.232;2023-03-01T07:43:39;0.30;99.90
38090;DHT22;23904;52.322;10.232;2023-03-01T07:46:05;0.90;99.90
38090;DHT22;23904;52.322;10.232;2023-03-01T07:48:32;1.40;99.90
38090;DHT22;23904;52.322;10.232;2023-03-01T07:51:03;1.80;99.90
38090;DHT22;23904;52.322;10.232;2023-03-01T07:53:29;2.10;99.90
38090;DHT22;23904;52.322;10.232;2023-03-01T07:56:08;2.90;99.90
38090;DHT22;23904;52.322;10.232;2023-03-01T07:58:36;3.70;99.90
38090;DHT22;23904;52.322;10.232;2023-03-01T08:01:04;4.40;99.90
38090;DHT22;23904;52.322;10.232;2023-03-01T08:03:31;4.20;99.90
38090;DHT22;23904;52.322;10.232;2023-03-01T08:06:00;3.50;99.90
38090;DHT22;23904;52.322;10.232;2023-03-01T08:08:26;3.20;99.90
38090;DHT22;23904;52.322;10.232;2023-03-01T08:10:52;2.60;99.90
38090;DHT22;23904;52.322;10.232;2023-03-01T08:13:17;1.90;99.90
38090;DHT22;23904;52.322;10.232;2023-03-01T08:15:48;1.50;99.90
38090;DHT22;23904;52.322;10.232;2023-03-01T08:18:14;1.60;99.90
38090;DHT22;23904;52.322;10.232;2023-03-01T08:20:43;1.40;99.90
38090;DHT22;23904;52.322;10.232;2023-03-01T08:23:09;1.40;99.90
38090;DHT22;23904;52.322;10.232;2023-03-01T08:25:34;1.30;99.90
38090;DHT22;23904;52.322;10.232;2023-03-01T08:28:00;1.30;99.90
38090;DHT22;23904;52.322;10.232;2023-03-01T08:30:26;1.20;99.90
38090;DHT22;23904;52.322;10.232;2023-03-01T08:32:52;1.10;99.90
38090;DHT22;23904;52.322;10.232;2023-03-01T08:35:17;1.10;99.90
38090;DHT22;23904;52.322;10.232;2023-03-01T08:37:44;1.10;99.90
38090;DHT22;23904;52.322;10.232;2023-03-01T08:40:10;1.20;99.90
38090;DHT22;23904;52.322;10.232;2023-03-01T08:42:39;1.20;99.90
38090;DHT22;23904;52.322;10.232;2023-03-01T08:45:06;1.20;99.90
38090;DHT22;23904;52.322;10.232;2023-03-01T08:47:32;1.20;99.90
38090;DHT22;23904;52.322;10.232;2023-03-01T08:50:01;1.20;99.90
38090;DHT22;23904;52.322;10.232;2023-03-01T08:52:27;1.30;99.90
38090;DHT22;23904;52.322;10.232;2023-03-01T08:54:55;1.30;99.90
38090;DHT22;23904;52.322;10.232;2023-03-01T08:57:21;1.40;99.90
38090;DHT22;23904;52.322;10.232;2023-03-01T08:59:47;1.50;99.90
38090;DHT22;23904;52.322;10.232;2023-03-01T09:02:15;1.50;99.90
38090;DHT22;23904;52.322;10.232;2023-03-01T09:04:42;1.60;99.90
38090;DHT22;23904;52.322;10.232;2023-03-01T09:07:09;1.60;99.90
38090;DHT22;23904;52.322;10.232;2023-03-01T09:09:36;1.70;99.90
38090;DHT22;23904;52.322;10.232;2023-03-01T09:12:02;1.80;99.90
38090;DHT22;23904;52.322;10.232;2023-03-01T09:14:28;2.20;99.90
38090;DHT22;23904;52.322;10.232;2023-03-01T09:16:53;2.70;99.90
38090;DHT22;23904;52.322;10.232;2023-03-01T09:19:19;3.60;99.90
38090;DHT22;23904;52.322;10.232;2023-03-01T09:21:45;4.20;99.90
38090;DHT22;23904;52.322;10.232;2023-03-01T09:24:18;5.70;99.90
38090;DHT22;23904;52.322;10.232;2023-03-01T09:26:46;7.90;95.80
38090;DHT22;23904;52.322;10.232;2023-03-01T09:29:12;8.80;92.90
38090;DHT22;23904;52.322;10.232;2023-03-01T09:31:40;10.10;91.20
38090;DHT22;23904;52.322;10.232;2023-03-01T09:34:07;10.80;82.50
38090;DHT22;23904;52.322;10.232;2023-03-01T09:36:33;11.60;77.60
38090;DHT22;23904;52.322;10.232;2023-03-01T09:39:00;11.10;79.80
38090;DHT22;23904;52.322;10.232;2023-03-01T09:47:19;15.00;62.00
38090;DHT22;23904;52.322;10.232;2023-03-01T09:50:05;16.10;57.20
38090;DHT22;23904;52.322;10.232;2023-03-01T09:55:33;16.60;54.70
38090;DHT22;23904;52.322;10.232;2023-03-01T09:58:37;17.10;52.50
38090;DHT22;23904;52.322;10.232;2023-03-01T10:09:52;14.20;55.50
38090;DHT22;23904;52.322;10.232;2023-03-01T10:12:22;16.20;54.60
38090;DHT22;23904;52.322;10.232;2023-03-01T10:15:16;17.00;52.40
38090;DHT22;23904;52.322;10.232;2023-03-01T10:17:51;18.20;46.00
38090;DHT22;23904;52.322;10.232;2023-03-01T10:22:53;18.10;45.10
38090;DHT22;23904;52.322;10.232;2023-03-01T10:31:02;20.50;41.60
38090;DHT22;23904;52.322;10.232;2023-03-01T10:33:32;20.90;40.60
38090;DHT22;23904;52.322;10.232;2023-03-01T10:36:01;20.80;41.00
38090;DHT22;23904;52.322;10.232;2023-03-01T10:38:30;19.70;42.10
38090;DHT22;23904;52.322;10.232;2023-03-01T10:43:25;21.00;38.50
38090;DHT22;23904;52.322;10.232;2023-03-01T10:45:52;21.20;37.80
38090;DHT22;23904;52.322;10.232;2023-03-01T10:48:19;21.20;37.10
38090;DHT22;23904;52.322;10.232;2023-03-01T10:51:05;19.20;39.80
38090;DHT22;23904;52.322;10.232;2023-03-01T10:56:12;19.60;38.40
38090;DHT22;23904;52.322;10.232;2023-03-01T10:58:40;18.80;40.30
38090;DHT22;23904;52.322;10.232;2023-03-01T11:06:35;19.70;37.70
38090;DHT22;23904;52.322;10.232;2023-03-01T11:09:23;18.40;39.50
38090;DHT22;23904;52.322;10.232;2023-03-01T11:11:57;17.20;42.20
38090;DHT22;23904;52.322;10.232;2023-03-01T11:14:35;16.20;43.00
38090;DHT22;23904;52.322;10.232;2023-03-01T11:17:12;15.30;45.00
38090;DHT22;23904;52.322;10.232;2023-03-01T11:19:41;15.30;45.90
38090;DHT22;23904;52.322;10.232;2023-03-01T11:22:18;14.40;47.10
38090;DHT22;23904;52.322;10.232;2023-03-01T11:24:51;14.40;47.90
38090;DHT22;23904;52.322;10.232;2023-03-01T11:27:38;14.60;47.90
38090;DHT22;23904;52.322;10.232;2023-03-01T11:30:12;15.00;46.60
38090;DHT22;23904;52.322;10.232;2023-03-01T11:32:53;14.40;46.80
38090;DHT22;23904;52.322;10.232;2023-03-01T11:35:27;12.70;51.30
38090;DHT22;23904;52.322;10.232;2023-03-01T11:38:23;12.70;51.70
38090;DHT22;23904;52.322;10.232;2023-03-01T11:52:07;13.40;51.40
38090;DHT22;23904;52.322;10.232;2023-03-01T12:03:50;18.20;43.60
38090;DHT22;23904;52.322;10.232;2023-03-01T12:10:11;20.00;39.90
38090;DHT22;23904;52.322;10.232;2023-03-01T12:12:57;20.00;38.10
38090;DHT22;23904;52.322;10.232;2023-03-01T12:19:07;20.30;38.70
38090;DHT22;23904;52.322;10.232;2023-03-01T12:22:02;21.60;36.50
38090;DHT22;23904;52.322;10.232;2023-03-01T12:37:33;18.10;40.20
38090;DHT22;23904;52.322;10.232;2023-03-01T12:43:40;16.30;41.60
38090;DHT22;23904;52.322;10.232;2023-03-01T12:46:34;15.50;43.80
38090;DHT22;23904;52.322;10.232;2023-03-01T12:49:14;15.60;44.00
38090;DHT22;23904;52.322;10.232;2023-03-01T12:51:46;15.80;43.60
38090;DHT22;23904;52.322;10.232;2023-03-01T12:54:30;14.40;46.10
38090;DHT22;23904;52.322;10.232;2023-03-01T12:57:05;13.50;46.60
38090;DHT22;23904;52.322;10.232;2023-03-01T12:59:48;12.80;49.40
38090;DHT22;23904;52.322;10.232;2023-03-01T13:02:30;11.80;51.60
38090;DHT22;23904;52.322;10.232;2023-03-01T13:10:56;11.40;52.30
38090;DHT22;23904;52.322;10.232;2023-03-01T13:13:26;11.50;52.50
38090;DHT22;23904;52.322;10.232;2023-03-01T13:15:53;11.30;52.70
38090;DHT22;23904;52.322;10.232;2023-03-01T13:20:47;10.90;53.00
38090;DHT22;23904;52.322;10.232;2023-03-01T13:26:07;11.50;54.00
38090;DHT22;23904;52.322;10.232;2023-03-01T13:28:38;12.50;51.70
38090;DHT22;23904;52.322;10.232;2023-03-01T13:36:09;15.40;46.30
38090;DHT22;23904;52.322;10.232;2023-03-01T13:38:45;16.00;44.60
38090;DHT22;23904;52.322;10.232;2023-03-01T13:41:17;15.20;44.90
38090;DHT22;23904;52.322;10.232;2023-03-01T13:44:24;15.40;45.00
38090;DHT22;23904;52.322;10.232;2023-03-01T13:49:57;15.40;44.10
38090;DHT22;23904;52.322;10.232;2023-03-01T13:52:39;14.20;44.80
38090;DHT22;23904;52.322;10.232;2023-03-01T13:57:53;13.60;45.70
38090;DHT22;23904;52.322;10.232;2023-03-01T14:03:13;12.40;48.70
38090;DHT22;23904;52.322;10.232;2023-03-01T14:08:35;11.00;51.80
38090;DHT22;23904;52.322;10.232;2023-03-01T14:14:14;10.60;51.90
38090;DHT22;23904;52.322;10.232;2023-03-01T14:19:39;10.30;53.00
38090;DHT22;23904;52.322;10.232;2023-03-01T14:22:20;10.30;53.50
38090;DHT22;23904;52.322;10.232;2023-03-01T14:27:25;9.70;53.80
38090;DHT22;23904;52.322;10.232;2023-03-01T14:30:00;9.60;53.90
38090;DHT22;23904;52.322;10.232;2023-03-01T14:32:31;9.30;55.20
38090;DHT22;23904;52.322;10.232;2023-03-01T14:34:58;9.30;56.20
38090;DHT22;23904;52.322;10.232;2023-03-01T14:37:34;9.10;56.00
38090;DHT22;23904;52.322;10.232;2023-03-01T14:40:01;9.00;56.60
38090;DHT22;23904;52.322;10.232;2023-03-01T14:42:35;8.80;57.30
38090;DHT22;23904;52.322;10.232;2023-03-01T14:45:03;8.70;58.20
38090;DHT22;23904;52.322;10.232;2023-03-01T14:47:35;8.60;58.10
38090;DHT22;23904;52.322;10.232;2023-03-01T14:50:25;8.50;59.00
38090;DHT22;23904;52.322;10.232;2023-03-01T14:53:04;8.40;59.50
38090;DHT22;23904;52.322;10.232;2023-03-01T14:55:36;8.40;59.10
38090;DHT22;23904;52.322;10.232;2023-03-01T14:58:11;8.30;59.70
38090;DHT22;23904;52.322;10.232;2023-03-01T15:00:39;8.30;59.40
38090;DHT22;23904;52.322;10.232;2023-03-01T15:03:25;8.20;59.40
38090;DHT22;23904;52.322;10.232;2023-03-01T15:06:06;8.10;59.90
38090;DHT22;23904;52.322;10.232;2023-03-01T15:08:33;8.00;60.10
38090;DHT22;23904;52.322;10.232;2023-03-01T15:11:00;8.00;60.50
38090;DHT22;23904;52.322;10.232;2023-03-01T15:13:33;8.00;59.60
38090;DHT22;23904;52.322;10.232;2023-03-01T15:16:34;7.90;58.80
38090;DHT22;23904;52.322;10.232;2023-03-01T15:19:01;8.00;60.10
38090;DHT22;23904;52.322;10.232;2023-03-01T15:21:38;8.10;59.20
38090;DHT22;23904;52.322;10.232;2023-03-01T15:26:49;8.10;58.70
38090;DHT22;23904;52.322;10.232;2023-03-01T15:29:25;8.00;59.30
38090;DHT22;23904;52.322;10.232;2023-03-01T15:32:04;8.00;58.60
38090;DHT22;23904;52.322;10.232;2023-03-01T15:34:36;8.00;59.60
38090;DHT22;23904;52.322;10.232;2023-03-01T15:37:04;8.00;59.60
38090;DHT22;23904;52.322;10.232;2023-03-01T15:42:13;8.00;59.00
38090;DHT22;23904;52.322;10.232;2023-03-01T15:47:48;7.90;59.20
38090;DHT22;23904;52.322;10.232;2023-03-01T15:50:21;7.90;59.20
38090;DHT22;23904;52.322;10.232;2023-03-01T15:52:51;7.80;59.80
38090;DHT22;23904;52.322;10.232;2023-03-01T15:55:24;7.70;60.90
38090;DHT22;23904;52.322;10.232;2023-03-01T15:58:09;7.60;61.10
38090;DHT22;23904;52.322;10.232;2023-03-01T16:00:38;7.70;60.70
38090;DHT22;23904;52.322;10.232;2023-03-01T16:03:05;7.70;61.40
38090;DHT22;23904;52.322;10.232;2023-03-01T16:05:33;7.70;62.40
38090;DHT22;23904;52.322;10.232;2023-03-01T16:08:00;7.60;61.70
38090;DHT22;23904;52.322;10.232;2023-03-01T16:10:26;7.60;62.50
38090;DHT22;23904;52.322;10.232;2023-03-01T16:12:53;7.60;63.50
38090;DHT22;23904;52.322;10.232;2023-03-01T16:15:21;7.50;64.20
38090;DHT22;23904;52.322;10.232;2023-03-01T16:17:49;7.50;64.10
38090;DHT22;23904;52.322;10.232;2023-03-01T16:20:15;7.40;64.70
38090;DHT22;23904;52.322;10.232;2023-03-01T16:22:45;7.40;65.70
38090;DHT22;23904;52.322;10.232;2023-03-01T16:25:12;7.40;66.20
38090;DHT22;23904;52.322;10.232;2023-03-01T16:27:42;7.30;66.90
38090;DHT22;23904;52.322;10.232;2023-03-01T16:30:10;7.30;67.20
38090;DHT22;23904;52.322;10.232;2023-03-01T16:32:41;7.20;68.60
38090;DHT22;23904;52.322;10.232;2023-03-01T16:35:10;7.20;68.20
38090;DHT22;23904;52.322;10.232;2023-03-01T16:37:38;7.20;68.70
38090;DHT22;23904;52.322;10.232;2023-03-01T16:40:05;7.10;69.40
38090;DHT22;23904;52.322;10.232;2023-03-01T16:42:36;7.10;70.00
38090;DHT22;23904;52.322;10.232;2023-03-01T16:45:03;7.00;70.20
38090;DHT22;23904;52.322;10.232;2023-03-01T16:47:29;6.90;71.20
38090;DHT22;23904;52.322;10.232;2023-03-01T16:49:55;6.80;72.10
38090;DHT22;23904;52.322;10.232;2023-03-01T16:52:21;6.80;71.40
38090;DHT22;23904;52.322;10.232;2023-03-01T16:54:47;6.70;72.50
38090;DHT22;23904;52.322;10.232;2023-03-01T16:57:14;6.70;73.30
38090;DHT22;23904;52.322;10.232;2023-03-01T16:59:41;6.60;72.60
38090;DHT22;23904;52.322;10.232;2023-03-01T17:02:10;6.60;73.40
38090;DHT22;23904;52.322;10.232;2023-03-01T17:04:38;6.60;73.70
38090;DHT22;23904;52.322;10.232;2023-03-01T17:07:04;6.40;74.80
38090;DHT22;23904;52.322;10.232;2023-03-01T17:09:30;6.30;77.50
38090;DHT22;23904;52.322;10.232;2023-03-01T17:11:55;6.20;77.00
38090;DHT22;23904;52.322;10.232;2023-03-01T17:14:22;6.20;77.10
38090;DHT22;23904;52.322;10.232;2023-03-01T17:16:48;6.10;77.00
38090;DHT22;23904;52.322;10.232;2023-03-01T17:19:13;6.10;79.30
38090;DHT22;23904;52.322;10.232;2023-03-01T17:21:43;6.00;80.50
38090;DHT22;23904;52.322;10.232;2023-03-01T17:24:09;5.90;81.00
38090;DHT22;23904;52.322;10.232;2023-03-01T17:26:35;5.80;82.40
38090;DHT22;23904;52.322;10.232;2023-03-01T17:29:01;5.70;83.30
38090;DHT22;23904;52.322;10.232;2023-03-01T17:31:28;5.70;83.90
38090;DHT22;23904;52.322;10.232;2023-03-01T17:33:53;5.60;84.90
38090;DHT22;23904;52.322;10.232;2023-03-01T17:36:19;5.60;83.50
38090;DHT22;23904;52.322;10.232;2023-03-01T17:38:44;5.50;83.70
38090;DHT22;23904;52.322;10.232;2023-03-01T17:41:11;5.50;84.30
38090;DHT22;23904;52.322;10.232;2023-03-01T17:43:37;5.50;86.00
38090;DHT22;23904;52.322;10.232;2023-03-01T17:46:03;5.40;87.10
38090;DHT22;23904;52.322;10.232;2023-03-01T17:48:29;5.40;85.30